createdAt,value
2022-12-25T00:01:53.032Z,7.20
2022-12-25T00:06:56.869Z,7.12
2022-12-25T00:12:00.423Z,7.03
2022-12-25T00:17:04.440Z,7.00
2022-12-25T00:22:07.964Z,7.05
2022-12-25T00:27:12.228Z,7.15
2022-12-25T00:32:15.349Z,7.08
2022-12-25T00:37:19.201Z,7.03
2022-12-25T00:42:23.979Z,6.99
2022-12-25T00:47:27.807Z,7.07
2022-12-25T00:52:31.008Z,7.16
2022-12-25T00:57:36.008Z,7.12
2022-12-25T01:02:39.115Z,7.14
2022-12-25T01:07:42.981Z,7.28
2022-12-25T01:12:46.052Z,7.19
2022-12-25T01:17:49.963Z,7.18
2022-12-25T01:22:53.616Z,7.15
2022-12-25T01:27:57.346Z,7.08
2022-12-25T01:33:01.432Z,7.09
2022-12-25T01:38:05.573Z,7.04
2022-12-25T01:43:29.745Z,6.98
2022-12-25T01:48:38.980Z,6.88
2022-12-25T01:53:42.113Z,6.77
2022-12-25T01:58:46.134Z,6.90
2022-12-25T02:03:49.497Z,6.85
2022-12-25T02:08:52.939Z,6.84
2022-12-25T02:13:56.555Z,7.05
2022-12-25T02:19:10.058Z,6.89
2022-12-25T02:24:46.600Z,6.79
2022-12-25T02:30:05.251Z,6.64
2022-12-25T02:35:24.338Z,6.57
2022-12-25T02:41:00.147Z,6.50
2022-12-25T02:46:33.578Z,6.37
2022-12-25T02:51:59.607Z,6.41
2022-12-25T02:57:25.658Z,6.20
2022-12-25T03:02:49.577Z,6.37
2022-12-25T03:07:52.703Z,6.28
2022-12-25T03:13:08.108Z,6.15
2022-12-25T03:18:16.719Z,5.91
2022-12-25T03:23:42.948Z,5.83
2022-12-25T03:28:46.633Z,5.78
2022-12-25T03:34:32.883Z,6.02
2022-12-25T03:40:22.262Z,6.18
2022-12-25T03:46:03.264Z,6.17
2022-12-25T03:51:31.508Z,5.95
2022-12-25T03:56:57.029Z,6.26
2022-12-25T04:02:19.840Z,6.51
2022-12-25T04:07:41.772Z,6.70
2022-12-25T04:13:03.666Z,6.85
2022-12-25T04:18:25.973Z,6.40
2022-12-25T04:23:47.672Z,6.19
2022-12-25T04:29:17.550Z,6.53
2022-12-25T04:34:39.336Z,6.52
2022-12-25T04:39:42.732Z,6.35
2022-12-25T04:44:45.809Z,6.23
2022-12-25T04:49:49.495Z,6.42
2022-12-25T04:54:53.069Z,6.27
2022-12-25T04:59:56.160Z,6.04
2022-12-25T05:04:59.290Z,5.91
2022-12-25T05:10:02.415Z,6.05
2022-12-25T05:15:06.221Z,6.11
2022-12-25T05:20:10.431Z,6.42
2022-12-25T05:25:15.943Z,6.19
2022-12-25T05:30:19.653Z,6.03
2022-12-25T05:35:23.695Z,5.89
2022-12-25T05:40:26.762Z,5.92
2022-12-25T05:45:31.492Z,5.97
2022-12-25T05:50:37.945Z,5.66
2022-12-25T05:55:46.159Z,5.61
2022-12-25T06:00:49.240Z,6.07
2022-12-25T06:05:53.872Z,5.96
2022-12-25T06:10:57.411Z,5.95
2022-12-25T06:16:04.397Z,5.67
2022-12-25T06:21:12.350Z,5.65
2022-12-25T06:26:18.438Z,5.51
2022-12-25T06:31:24.067Z,5.45
2022-12-25T06:36:29.785Z,5.55
2022-12-25T06:41:33.992Z,5.87
2022-12-25T06:46:37.419Z,6.05
2022-12-25T06:51:41.694Z,6.40
2022-12-25T06:56:45.832Z,6.68
2022-12-25T07:01:57.910Z,6.75
2022-12-25T07:07:08.378Z,7.66
2022-12-25T07:12:18.653Z,11.36
2022-12-25T07:17:23.051Z,15.46
2022-12-25T07:22:29.753Z,17.63
2022-12-25T07:27:33.709Z,19.76
2022-12-25T07:32:37.471Z,20.98
2022-12-25T07:37:40.675Z,21.25
2022-12-25T07:42:44.248Z,21.47
2022-12-25T07:47:48.389Z,22.32
2022-12-25T07:52:51.680Z,22.93
2022-12-25T07:57:55.958Z,24.09
2022-12-25T08:03:00.802Z,24.73
2022-12-25T08:08:04.226Z,23.84
2022-12-25T08:13:13.966Z,23.43
2022-12-25T08:18:18.018Z,24.73
2022-12-25T08:23:21.798Z,25.10
2022-12-25T08:28:25.502Z,24.93
2022-12-25T08:33:29.496Z,23.47
2022-12-25T09:20:46.753Z,25.29
2022-12-25T09:25:50.636Z,26.08
2022-12-25T09:30:55.317Z,25.15
2022-12-25T09:36:01.670Z,25.23
2022-12-25T09:41:28.522Z,24.79
2022-12-25T09:46:42.592Z,25.17
2022-12-25T09:51:53.562Z,26.75
2022-12-25T09:56:58.280Z,26.46
2022-12-25T10:02:15.874Z,25.71
2022-12-25T10:08:07.336Z,25.97
2022-12-25T10:13:48.704Z,25.15
2022-12-25T10:19:11.259Z,25.40
2022-12-25T10:24:21.180Z,25.06
2022-12-25T10:29:25.008Z,25.35
2022-12-25T10:34:29.185Z,25.31
2022-12-25T10:39:32.589Z,24.65
2022-12-25T10:44:36.661Z,23.10
2022-12-25T10:49:40.611Z,23.44
2022-12-25T10:54:44.526Z,22.79
2022-12-25T10:59:57.038Z,21.67
2022-12-25T11:05:10.341Z,20.27
2022-12-25T11:10:28.339Z,20.75
2022-12-25T11:15:40.118Z,19.39
2022-12-25T11:20:50.285Z,20.32
2022-12-25T11:26:02.546Z,20.39
2022-12-25T11:31:14.190Z,20.17
2022-12-25T11:36:29.628Z,20.38
2022-12-25T11:41:35.291Z,20.17
2022-12-25T11:46:45.515Z,20.37
2022-12-25T11:51:54.962Z,20.56
2022-12-25T11:57:03.762Z,20.97
2022-12-25T12:02:19.411Z,20.99
2022-12-25T12:07:27.524Z,20.89
2022-12-25T12:13:01.107Z,21.07
2022-12-25T12:18:20.714Z,20.42
2022-12-25T12:23:24.216Z,21.31
2022-12-25T12:28:44.939Z,21.44
2022-12-25T12:33:57.967Z,21.21
2022-12-25T12:39:01.913Z,22.02
2022-12-25T12:44:08.016Z,21.21
2022-12-25T12:49:24.384Z,21.63
2022-12-25T12:54:28.448Z,22.61
2022-12-25T12:59:44.728Z,22.32
2022-12-25T13:05:18.789Z,22.48
2022-12-25T13:10:29.199Z,22.93
2022-12-25T13:15:36.234Z,22.44
2022-12-25T13:20:46.569Z,22.09
2022-12-25T13:26:17.558Z,22.18
2022-12-25T13:31:24.272Z,22.24
2022-12-25T13:36:29.900Z,22.61
2022-12-25T13:42:02.242Z,22.24
2022-12-25T13:47:22.061Z,22.11
2022-12-25T13:52:35.001Z,22.35
2022-12-25T13:57:41.709Z,22.94
2022-12-25T14:02:46.597Z,23.23
2022-12-25T14:07:55.140Z,22.58
2022-12-25T14:13:04.348Z,23.11
2022-12-25T14:18:13.990Z,23.69
2022-12-25T14:23:17.522Z,21.58
2022-12-25T14:28:34.951Z,18.98
2022-12-25T14:33:41.000Z,17.99
2022-12-25T14:38:46.241Z,17.28
2022-12-25T14:43:55.364Z,16.57
2022-12-25T14:49:03.652Z,16.20
2022-12-25T14:54:17.815Z,15.57
2022-12-25T14:59:27.737Z,15.29
2022-12-25T15:04:31.664Z,14.86
2022-12-25T15:09:36.283Z,14.47
2022-12-25T15:14:40.543Z,14.16
2022-12-25T15:19:44.494Z,13.76
2022-12-25T15:24:48.481Z,13.44
2022-12-25T15:30:10.170Z,13.10
2022-12-25T15:35:23.841Z,12.78
2022-12-25T15:40:28.117Z,12.44
2022-12-25T15:45:32.481Z,12.02
2022-12-25T15:50:37.270Z,11.88
2022-12-25T15:55:41.416Z,11.63
2022-12-25T16:00:45.645Z,11.28
2022-12-25T16:05:49.636Z,10.99
2022-12-25T16:10:54.055Z,10.79
2022-12-25T16:15:58.933Z,10.59
2022-12-25T16:21:02.258Z,10.44
2022-12-25T16:26:06.737Z,10.26
2022-12-25T16:31:12.570Z,10.10
2022-12-25T16:36:18.378Z,9.97
2022-12-25T16:41:24.822Z,9.73
2022-12-25T16:46:28.556Z,9.64
2022-12-25T16:51:32.526Z,9.62
2022-12-25T16:56:36.999Z,9.58
2022-12-25T17:01:43.732Z,9.48
2022-12-25T17:06:49.526Z,9.25
2022-12-25T17:11:53.098Z,9.10
2022-12-25T17:16:57.326Z,8.90
2022-12-25T17:22:03.074Z,8.82
2022-12-25T17:27:08.952Z,8.74
2022-12-25T17:32:12.382Z,8.58
2022-12-25T17:37:17.067Z,8.52
2022-12-25T17:42:20.813Z,8.41
2022-12-25T17:47:24.535Z,8.22
2022-12-25T17:52:28.094Z,8.21
2022-12-25T17:57:32.131Z,8.13
2022-12-25T18:02:38.395Z,8.12
2022-12-25T18:07:41.990Z,8.14
2022-12-25T18:12:46.262Z,8.05
2022-12-25T18:17:49.385Z,8.00
2022-12-25T18:22:52.589Z,8.07
2022-12-25T18:27:57.390Z,8.03
2022-12-25T18:33:03.213Z,8.07
2022-12-25T18:38:06.628Z,8.13
2022-12-25T18:43:10.351Z,8.30
2022-12-25T18:48:13.754Z,8.14
2022-12-25T18:53:17.242Z,8.47
2022-12-25T18:58:20.543Z,8.67
2022-12-25T19:03:24.686Z,8.72
2022-12-25T19:08:28.237Z,8.72
2022-12-25T19:13:31.897Z,8.50
2022-12-25T19:18:39.226Z,8.52
2022-12-25T19:23:42.416Z,8.81
2022-12-25T19:28:46.516Z,8.78
2022-12-25T19:33:50.087Z,8.54
2022-12-25T19:38:54.221Z,8.12
2022-12-25T19:43:57.913Z,7.77
2022-12-25T19:49:04.580Z,7.53
2022-12-25T19:54:08.293Z,7.29
2022-12-25T19:59:13.251Z,7.09
2022-12-25T20:04:18.699Z,6.98
2022-12-25T20:09:23.147Z,6.94
2022-12-25T20:14:26.737Z,6.81
2022-12-25T20:19:31.032Z,6.72
2022-12-25T20:24:34.159Z,6.62
2022-12-25T20:29:38.363Z,6.49
2022-12-25T20:34:41.775Z,6.54
2022-12-25T20:39:45.802Z,6.46
2022-12-25T20:44:48.944Z,6.40
2022-12-25T20:49:52.541Z,6.42
2022-12-25T20:54:55.732Z,6.42
2022-12-25T21:00:00.147Z,6.26
2022-12-25T21:05:04.473Z,6.16
2022-12-25T21:10:08.897Z,6.08
2022-12-25T21:15:15.629Z,6.20
2022-12-25T21:20:19.127Z,6.12
2022-12-25T21:25:23.102Z,6.12
2022-12-25T21:30:26.213Z,6.32
2022-12-25T21:35:29.783Z,6.30
2022-12-25T21:40:36.028Z,5.93
2022-12-25T21:45:39.853Z,6.10
2022-12-25T21:51:02.815Z,6.19
2022-12-25T21:56:06.119Z,6.13
2022-12-25T22:01:11.978Z,6.07
2022-12-25T22:06:33.546Z,5.97
2022-12-25T22:11:55.720Z,6.07
2022-12-25T22:17:17.915Z,5.92
2022-12-25T22:22:27.359Z,5.87
2022-12-25T22:27:33.919Z,5.66
2022-12-25T22:32:37.796Z,5.61
2022-12-25T22:37:42.723Z,5.61
2022-12-25T22:42:45.896Z,5.67
2022-12-25T22:47:49.507Z,5.79
2022-12-25T22:52:53.091Z,5.74
2022-12-25T22:57:56.830Z,5.97
2022-12-25T23:03:00.256Z,5.82
2022-12-25T23:08:04.632Z,5.78
2022-12-25T23:13:26.967Z,5.83
2022-12-25T23:18:48.704Z,5.76
2022-12-25T23:24:10.131Z,5.67
2022-12-25T23:29:31.880Z,5.60
2022-12-25T23:34:36.781Z,5.77
2022-12-25T23:39:41.079Z,5.84
2022-12-25T23:44:45.114Z,5.80
2022-12-25T23:49:48.742Z,5.76
2022-12-25T23:54:53.148Z,5.73
2022-12-25T23:59:56.407Z,5.68
